Time;durP1;ratioP1;P1;durP2;ratioP2;P2;SDS_P1;SDS_P2;PMS_P1;PMS_P2;Temp;Humidity;BMP_temperature;BMP_pressure;BME280_temperature;BME280_humidity;BME280_pressure;Samples;Min_cycle;Max_cycle;Signal;HPM_P1;HPM_P2
2021/09/05 00:01:04;;;;;;;19.25;9.10;;;;;;;15.97;71.83;102117.41;5065320;28;20420;-50
2021/09/05 00:03:30;;;;;;;19.63;9.38;;;;;;;15.97;71.91;102115.66;5064688;28;20111;-49
2021/09/05 00:05:55;;;;;;;19.58;9.10;;;;;;;15.96;71.62;102116.53;5065047;28;20476;-49
2021/09/05 00:08:20;;;;;;;17.77;8.80;;;;;;;15.95;71.77;102122.66;5062268;28;20111;-51
2021/09/05 00:10:46;;;;;;;21.65;9.18;;;;;;;15.87;72.04;102118.16;5066531;28;20988;-51
2021/09/05 00:13:11;;;;;;;17.23;8.70;;;;;;;15.86;71.87;102121.66;5072834;28;20016;-52
2021/09/05 00:15:36;;;;;;;19.27;9.18;;;;;;;15.86;71.75;102121.66;5070645;28;20035;-51
2021/09/05 00:18:02;;;;;;;19.80;8.75;;;;;;;15.87;71.89;102124.28;5069807;28;20040;-47
2021/09/05 00:20:27;;;;;;;19.58;9.13;;;;;;;15.81;71.84;102126.84;5068110;28;20107;-49
2021/09/05 00:22:53;;;;;;;17.48;8.68;;;;;;;15.80;71.86;102133.84;5054593;28;20437;-46
2021/09/05 00:25:18;;;;;;;18.52;9.32;;;;;;;15.76;71.96;102131.19;5074279;28;20139;-47
2021/09/05 00:27:45;;;;;;;21.23;8.60;;;;;;;15.80;71.89;102130.34;5070409;28;20051;-53
2021/09/05 00:30:10;;;;;;;17.88;8.20;;;;;;;15.75;72.04;102132.03;5072114;28;20426;-50
2021/09/05 00:32:36;;;;;;;15.57;8.38;;;;;;;15.73;72.15;102125.91;5069712;28;20024;-49
2021/09/05 00:35:02;;;;;;;16.30;8.57;;;;;;;15.68;72.34;102119.69;5071881;28;20491;-49
2021/09/05 00:37:27;;;;;;;21.75;9.13;;;;;;;15.58;72.29;102116.06;5066096;28;20481;-48
2021/09/05 00:39:53;;;;;;;17.48;8.45;;;;;;;15.62;72.39;102128.38;5072408;28;20042;-49
2021/09/05 00:42:25;;;;;;;18.92;8.90;;;;;;;15.56;72.43;102127.41;5068587;28;20028;-50
2021/09/05 00:44:51;;;;;;;20.83;8.65;;;;;;;15.64;72.25;102126.66;5070798;28;20351;-48
2021/09/05 00:47:17;;;;;;;18.17;8.60;;;;;;;15.64;72.13;102131.03;5072840;28;20572;-47
2021/09/05 00:49:42;;;;;;;15.88;8.48;;;;;;;15.66;72.01;102131.94;5068534;28;20028;-49
2021/09/05 00:52:07;;;;;;;19.10;8.48;;;;;;;15.62;72.54;102128.38;5071708;28;20024;-50
2021/09/05 00:54:33;;;;;;;18.38;8.75;;;;;;;15.60;71.96;102127.50;5062793;28;20045;-47
2021/09/05 00:57:00;;;;;;;19.25;8.77;;;;;;;15.58;72.22;102123.94;5057099;28;20551;-48
2021/09/05 00:59:25;;;;;;;20.83;8.90;;;;;;;15.56;72.14;102123.03;5065488;28;20466;-48
2021/09/05 01:01:50;;;;;;;20.52;8.80;;;;;;;15.53;72.23;102122.13;5069530;28;20108;-47
2021/09/05 01:04:16;;;;;;;16.42;8.57;;;;;;;15.50;72.43;102124.66;5069887;28;20047;-51
2021/09/05 01:06:42;;;;;;;18.77;8.55;;;;;;;15.48;72.42;102122.03;5071228;28;20473;-46
2021/09/05 01:09:09;;;;;;;19.60;8.75;;;;;;;15.49;72.38;102126.41;5072189;28;20028;-48
2021/09/05 01:11:34;;;;;;;22.10;9.23;;;;;;;15.46;72.57;102131.63;5053593;28;20024;-49
2021/09/05 01:14:02;;;;;;;22.25;9.52;;;;;;;15.46;72.67;102134.28;5068941;28;20499;-48
2021/09/05 01:16:33;;;;;;;17.00;8.73;;;;;;;15.47;72.55;102133.41;5071977;28;20097;-50
2021/09/05 01:19:19;;;;;;;19.08;9.15;;;;;;;15.47;72.44;102138.66;5054870;28;20456;-48
2021/09/05 01:21:46;;;;;;;19.48;8.77;;;;;;;15.47;72.54;102128.16;5034186;28;21072;-49
2021/09/05 01:24:12;;;;;;;21.73;9.00;;;;;;;15.40;72.59;102135.06;5073435;28;20564;-52
2021/09/05 01:26:40;;;;;;;18.95;8.68;;;;;;;15.34;72.82;102131.47;5069102;28;20105;-53
2021/09/05 01:29:06;;;;;;;20.75;9.10;;;;;;;15.28;72.83;102129.66;5067938;28;20032;-52
2021/09/05 01:31:43;;;;;;;19.05;9.10;;;;;;;15.23;73.14;102133.97;5068461;28;21979;-48
2021/09/05 01:34:09;;;;;;;22.25;9.55;;;;;;;15.16;73.45;102137.34;5071518;28;20059;-50
2021/09/05 01:36:35;;;;;;;20.63;9.45;;;;;;;15.19;73.31;102137.38;5065218;28;20313;-46
2021/09/05 01:39:01;;;;;;;18.50;9.15;;;;;;;15.21;73.28;102142.66;5071376;28;20462;-47
2021/09/05 01:41:26;;;;;;;21.13;9.27;;;;;;;15.16;73.50;102139.97;5073246;28;20273;-49
2021/09/05 01:43:58;;;;;;;20.05;9.60;;;;;;;15.15;73.38;102137.31;5067495;28;20103;-47
2021/09/05 01:46:24;;;;;;;20.42;9.40;;;;;;;15.14;73.32;102135.56;5070289;28;20417;-47
2021/09/05 01:48:49;;;;;;;17.27;8.95;;;;;;;15.15;73.39;102137.31;5068923;28;20387;-47
2021/09/05 01:51:15;;;;;;;18.48;8.75;;;;;;;15.12;73.26;102139.91;5069948;28;20028;-49
2021/09/05 01:53:40;;;;;;;22.20;9.88;;;;;;;15.08;73.53;102141.59;5073345;28;20055;-49
2021/09/05 01:56:06;;;;;;;20.23;9.65;;;;;;;15.08;73.53;102145.97;5071191;28;20479;-47
2021/09/05 01:58:31;;;;;;;20.27;9.65;;;;;;;15.02;73.85;102145.03;5072670;28;20884;-50
2021/09/05 02:00:57;;;;;;;20.55;9.40;;;;;;;15.07;73.50;102147.72;5066556;28;20035;-47
2021/09/05 02:03:22;;;;;;;22.13;10.15;;;;;;;14.99;73.47;102149.34;5069422;28;20036;-49
2021/09/05 02:05:47;;;;;;;21.13;10.23;;;;;;;14.97;73.96;102149.31;5066259;28;20327;-49
2021/09/05 02:08:13;;;;;;;17.42;8.70;;;;;;;14.96;73.49;102152.81;5069209;28;20030;-50
2021/09/05 02:10:38;;;;;;;21.17;10.00;;;;;;;14.99;73.69;102154.59;5066957;28;20020;-48
2021/09/05 02:13:03;;;;;;;20.08;9.63;;;;;;;14.93;73.73;102158.03;5067741;28;20036;-51
2021/09/05 02:15:29;;;;;;;22.52;9.85;;;;;;;14.88;73.69;102159.66;5070335;28;20097;-50
2021/09/05 02:17:54;;;;;;;21.83;9.93;;;;;;;14.84;73.64;102157.88;5065465;28;20119;-46
2021/09/05 02:20:20;;;;;;;19.08;9.18;;;;;;;14.82;73.74;102164.81;5070016;28;20035;-47
2021/09/05 02:22:45;;;;;;;23.85;10.75;;;;;;;14.80;74.26;102165.66;5062116;28;20035;-50
2021/09/05 02:25:11;;;;;;;19.98;9.98;;;;;;;14.80;73.84;102169.19;5067948;28;20031;-48
2021/09/05 02:27:36;;;;;;;18.45;9.88;;;;;;;14.80;73.99;102160.41;5069031;28;20023;-49
2021/09/05 02:30:03;;;;;;;22.98;10.30;;;;;;;14.72;74.07;102167.28;5065581;28;20028;-46
2021/09/05 02:32:28;;;;;;;22.48;10.00;;;;;;;14.66;74.61;102170.69;5071332;28;20633;-46
2021/09/05 02:34:54;;;;;;;22.60;9.65;;;;;;;14.70;74.09;102172.50;5073140;28;20024;-48
2021/09/05 02:37:19;;;;;;;23.00;9.90;;;;;;;14.68;74.15;102171.59;5069215;28;20060;-51
2021/09/05 02:39:44;;;;;;;22.48;10.02;;;;;;;14.65;74.26;102174.16;5051019;28;20060;-50
2021/09/05 02:42:10;;;;;;;25.60;10.20;;;;;;;14.57;74.31;102174.03;5066441;28;20239;-49
2021/09/05 02:44:36;;;;;;;20.13;9.63;;;;;;;14.52;74.23;102175.69;5051828;28;20027;-49
2021/09/05 02:47:01;;;;;;;23.17;10.65;;;;;;;14.46;74.81;102175.56;5067053;28;20309;-52
2021/09/05 02:49:27;;;;;;;24.58;9.90;;;;;;;14.44;74.47;102168.53;5069123;28;20490;-46
2021/09/05 02:51:53;;;;;;;23.27;10.73;;;;;;;14.39;74.94;102165.84;5070667;28;20327;-47
2021/09/05 02:54:18;;;;;;;24.17;10.43;;;;;;;14.33;74.83;102170.06;5049948;28;20100;-48
2021/09/05 02:56:43;;;;;;;25.73;11.07;;;;;;;14.30;75.21;102167.38;5070527;28;20055;-52
2021/09/05 02:59:09;;;;;;;20.85;10.02;;;;;;;14.23;75.08;102163.72;5068209;28;20027;-48
2021/09/05 03:01:34;;;;;;;26.85;11.23;;;;;;;14.21;75.67;102166.31;5062161;28;20394;-48
2021/09/05 03:03:59;;;;;;;23.65;10.60;;;;;;;14.22;75.41;102164.59;5073089;28;20032;-48
2021/09/05 03:06:25;;;;;;;23.77;10.55;;;;;;;14.23;75.32;102166.34;5064619;28;20455;-47
2021/09/05 03:08:50;;;;;;;26.63;10.90;;;;;;;14.25;75.59;102164.66;5070381;28;20020;-51
2021/09/05 03:11:15;;;;;;;20.75;10.23;;;;;;;14.24;75.25;102170.75;5067276;28;20395;-49
2021/09/05 03:13:45;;;;;;;23.95;10.10;;;;;;;14.23;75.28;102166.34;5069393;28;20063;-47
2021/09/05 03:16:11;;;;;;;23.52;11.15;;;;;;;14.27;75.60;102162.06;5064905;28;20048;-50
2021/09/05 03:18:36;;;;;;;25.13;10.57;;;;;;;14.27;75.37;102162.97;5054162;28;20036;-50
2021/09/05 03:21:02;;;;;;;24.23;10.68;;;;;;;14.26;75.36;102161.19;5068644;28;20020;-47
2021/09/05 03:23:27;;;;;;;23.60;10.75;;;;;;;14.26;75.27;102162.94;5068154;28;20477;-50
2021/09/05 03:25:53;;;;;;;25.00;11.05;;;;;;;14.27;75.26;102162.06;5068416;28;20023;-48
2021/09/05 03:28:18;;;;;;;23.70;10.90;;;;;;;14.25;75.18;102153.28;5065295;28;20035;-48
2021/09/05 03:30:43;;;;;;;26.65;11.27;;;;;;;14.24;75.11;102160.25;5069705;28;20476;-47
2021/09/05 03:33:08;;;;;;;25.92;11.18;;;;;;;14.22;75.00;102157.59;5066541;28;20107;-48
2021/09/05 03:35:34;;;;;;;24.25;10.82;;;;;;;14.21;75.13;102165.44;5067971;28;20020;-48
2021/09/05 03:37:59;;;;;;;24.40;10.98;;;;;;;14.13;75.38;102170.56;5068073;28;20059;-48
2021/09/05 03:40:25;;;;;;;29.65;10.80;;;;;;;14.09;75.48;102165.19;5067802;28;20059;-47
2021/09/05 03:42:50;;;;;;;24.75;11.15;;;;;;;14.12;75.44;102160.91;5066145;28;20024;-49
2021/09/05 03:45:15;;;;;;;25.95;11.77;;;;;;;14.05;75.56;102158.13;5068536;28;20512;-48
2021/09/05 03:47:41;;;;;;;33.95;11.95;;;;;;;14.04;75.71;102156.38;5067356;28;20444;-48
2021/09/05 03:50:06;;;;;;;26.00;11.77;;;;;;;14.06;75.57;102152.94;5069872;28;20028;-48
2021/09/05 03:52:33;;;;;;;28.50;11.85;;;;;;;14.04;75.32;102152.00;5066190;28;20560;-48
2021/09/05 03:54:59;;;;;;;28.95;11.18;;;;;;;14.02;75.64;102158.09;5067186;28;20036;-48
2021/09/05 03:57:24;;;;;;;27.25;11.45;;;;;;;14.00;75.77;102155.44;5069599;28;20059;-48
2021/09/05 03:59:49;;;;;;;23.85;11.25;;;;;;;14.00;75.46;102158.06;5046580;28;20077;-49
2021/09/05 04:02:15;;;;;;;23.02;11.18;;;;;;;14.00;75.60;102167.66;5068828;28;20028;-50
2021/09/05 04:04:40;;;;;;;27.85;11.68;;;;;;;13.96;75.71;102160.59;5066889;28;20043;-47
2021/09/05 04:07:08;;;;;;;23.73;11.55;;;;;;;13.95;75.82;102158.81;5065818;28;20031;-48
2021/09/05 04:12:17;;;;;;;26.17;11.63;;;;;;;13.92;75.51;102171.84;5064389;28;20954;-54
2021/09/05 04:14:43;;;;;;;24.90;11.02;;;;;;;13.87;75.59;102165.63;5066776;28;20764;-51
2021/09/05 04:17:09;;;;;;;26.80;11.68;;;;;;;13.85;75.84;102165.59;5068063;28;20032;-49
2021/09/05 04:19:34;;;;;;;26.38;11.10;;;;;;;13.82;75.89;102168.19;5064907;28;20028;-51
2021/09/05 04:22:01;;;;;;;25.88;11.45;;;;;;;13.79;75.89;102166.34;5050698;28;20093;-48
2021/09/05 04:24:26;;;;;;;25.75;11.52;;;;;;;13.80;75.66;102164.63;5065331;28;20094;-47
2021/09/05 04:26:51;;;;;;;24.67;11.23;;;;;;;13.78;75.76;102163.72;5072213;28;20642;-46
2021/09/05 04:29:17;;;;;;;29.42;11.93;;;;;;;13.73;76.04;102163.59;5065285;28;20443;-50
2021/09/05 04:31:42;;;;;;;29.75;12.45;;;;;;;13.72;76.23;102163.59;5064952;28;21150;-47
2021/09/05 04:34:08;;;;;;;29.45;12.70;;;;;;;13.73;76.12;102163.59;5050179;28;20369;-46
2021/09/05 04:36:33;;;;;;;26.17;12.20;;;;;;;13.74;76.03;102165.38;5066859;28;20115;-50
2021/09/05 04:38:59;;;;;;;27.45;11.57;;;;;;;13.72;75.81;102172.31;5051671;28;20646;-49
2021/09/05 04:41:24;;;;;;;29.88;12.30;;;;;;;13.68;75.88;102161.75;5066683;28;20079;-48
2021/09/05 04:43:50;;;;;;;32.83;12.55;;;;;;;13.63;76.27;102168.63;5063375;28;20052;-50
2021/09/05 04:46:15;;;;;;;30.65;12.75;;;;;;;13.65;75.91;102169.56;5065091;28;20072;-52
2021/09/05 04:48:41;;;;;;;29.45;12.27;;;;;;;13.64;76.30;102171.28;5066697;28;20016;-53
2021/09/05 04:51:06;;;;;;;29.67;13.05;;;;;;;13.66;76.23;102169.56;5066146;28;20306;-49
2021/09/05 04:53:32;;;;;;;31.67;12.68;;;;;;;13.67;76.14;102170.47;5047396;28;20048;-47
2021/09/05 04:55:57;;;;;;;29.90;12.50;;;;;;;13.63;76.10;102171.25;5048695;28;20067;-47
2021/09/05 04:58:23;;;;;;;27.38;12.23;;;;;;;13.65;75.66;102175.69;5065210;28;20038;-47
2021/09/05 05:00:48;;;;;;;32.50;13.15;;;;;;;13.62;76.16;102174.72;5066865;28;20399;-47
2021/09/05 05:03:13;;;;;;;27.65;12.95;;;;;;;13.56;76.27;102172.84;5067083;28;20039;-53
2021/09/05 05:05:39;;;;;;;28.13;13.25;;;;;;;13.57;76.46;102177.25;5052823;28;20151;-50
2021/09/05 05:08:04;;;;;;;30.33;12.82;;;;;;;13.60;76.17;102179.91;5074098;28;20030;-47
2021/09/05 05:10:30;;;;;;;30.50;12.50;;;;;;;13.61;76.02;102183.44;5069840;28;20571;-52
2021/09/05 05:12:55;;;;;;;31.50;13.05;;;;;;;13.60;76.32;102189.56;5069483;28;20020;-48
2021/09/05 05:15:20;;;;;;;27.92;12.07;;;;;;;13.59;76.23;102185.16;5069224;28;20047;-49
2021/09/05 05:17:46;;;;;;;28.40;13.18;;;;;;;13.62;76.77;102185.19;5073549;28;20066;-50
2021/09/05 05:20:12;;;;;;;33.08;13.23;;;;;;;13.67;76.47;102194.94;5056857;28;20020;-48
2021/09/05 05:22:38;;;;;;;28.83;12.63;;;;;;;13.71;76.16;102196.78;5066576;28;20032;-47
2021/09/05 05:25:05;;;;;;;29.67;12.65;;;;;;;13.72;76.04;102195.91;5068403;28;20035;-47
2021/09/05 05:27:30;;;;;;;27.95;12.35;;;;;;;13.76;76.06;102203.00;5070144;28;20024;-46
2021/09/05 05:29:55;;;;;;;30.23;12.48;;;;;;;13.81;75.86;102203.09;5075093;28;20074;-49
2021/09/05 05:32:21;;;;;;;33.88;13.38;;;;;;;13.82;75.85;102204.88;5071068;28;20044;-53
2021/09/05 05:34:46;;;;;;;30.75;12.00;;;;;;;13.81;75.76;102208.34;5068292;28;20026;-51
2021/09/05 05:37:12;;;;;;;28.05;12.40;;;;;;;13.87;75.84;102210.19;5068549;28;20024;-50
2021/09/05 05:39:37;;;;;;;30.65;12.65;;;;;;;13.89;75.50;102209.41;5068519;28;20066;-50
2021/09/05 05:42:03;;;;;;;27.52;12.10;;;;;;;13.93;75.29;102210.34;5068618;28;20388;-49
2021/09/05 05:44:28;;;;;;;24.92;12.15;;;;;;;13.98;75.25;102209.56;5069203;28;20128;-52
2021/09/05 05:46:54;;;;;;;28.95;12.27;;;;;;;14.02;75.12;102214.03;5071839;28;20365;-53
2021/09/05 05:49:19;;;;;;;35.63;12.30;;;;;;;14.06;74.89;102214.97;5069863;28;20255;-51
2021/09/05 05:51:44;;;;;;;27.88;12.10;;;;;;;14.11;74.79;102223.81;5066356;28;20394;-51
2021/09/05 05:54:10;;;;;;;24.65;12.10;;;;;;;14.22;74.64;102225.81;5066861;28;20625;-51
2021/09/05 05:56:35;;;;;;;27.17;12.30;;;;;;;14.27;74.37;102219.78;5051775;28;20441;-49
2021/09/05 05:59:01;;;;;;;30.55;12.23;;;;;;;14.37;74.16;102225.25;5072740;28;20032;-48
2021/09/05 06:01:26;;;;;;;25.40;12.30;;;;;;;14.39;73.90;102230.56;5067915;28;20523;-48
2021/09/05 06:03:52;;;;;;;26.67;12.50;;;;;;;14.49;73.73;102227.22;5072215;28;20460;-47
2021/09/05 06:06:17;;;;;;;26.80;12.50;;;;;;;14.63;73.46;102228.38;5067537;28;20032;-47
2021/09/05 06:08:43;;;;;;;23.48;12.10;;;;;;;15.03;72.83;102216.81;5068123;28;20466;-51
2021/09/05 06:11:08;;;;;;;23.83;11.73;;;;;;;15.77;71.43;102220.59;5050282;28;20047;-46
2021/09/05 06:13:33;;;;;;;21.67;11.32;;;;;;;16.53;67.23;102217.97;5071833;28;20059;-51
2021/09/05 06:15:59;;;;;;;21.63;10.88;;;;;;;17.45;64.20;102221.44;5068284;28;20146;-53
2021/09/05 06:18:25;;;;;;;21.42;11.13;;;;;;;18.25;63.01;102223.63;5051918;28;20036;-48
2021/09/05 06:20:50;;;;;;;18.85;10.52;;;;;;;19.06;60.29;102218.50;5063124;28;20578;-47
2021/09/05 06:23:15;;;;;;;19.90;10.30;;;;;;;19.75;56.08;102222.84;5067006;28;20051;-49
2021/09/05 06:25:41;;;;;;;21.85;10.95;;;;;;;20.19;55.38;102220.00;5070552;28;20111;-53
2021/09/05 06:28:06;;;;;;;19.40;10.23;;;;;;;20.62;53.83;102227.72;5067791;28;20475;-48
2021/09/05 06:30:32;;;;;;;18.98;9.70;;;;;;;20.81;52.84;102229.34;5054858;28;20455;-47
2021/09/05 06:32:57;;;;;;;17.20;10.02;;;;;;;20.96;52.97;102231.91;5065920;28;20527;-49
2021/09/05 06:35:22;;;;;;;18.67;9.55;;;;;;;21.08;52.04;102228.28;5069096;28;20032;-49
2021/09/05 06:37:48;;;;;;;17.83;9.88;;;;;;;20.89;52.54;102232.84;5063896;28;20032;-49
2021/09/05 06:40:13;;;;;;;18.20;10.02;;;;;;;21.61;50.06;102227.78;5065803;28;20032;-48
2021/09/05 06:42:39;;;;;;;17.35;10.07;;;;;;;21.61;50.20;102229.56;5069782;28;20028;-47
2021/09/05 06:45:05;;;;;;;18.17;9.93;;;;;;;22.14;49.11;102237.78;5070337;28;20480;-51
2021/09/05 06:47:30;;;;;;;15.27;9.82;;;;;;;22.22;49.06;102237.72;5068767;28;20027;-53
2021/09/05 06:49:55;;;;;;;16.40;10.20;;;;;;;22.28;48.83;102245.59;5064788;28;20020;-50
2021/09/05 06:52:21;;;;;;;18.08;9.80;;;;;;;22.11;49.42;102242.28;5067148;28;20476;-49
2021/09/05 06:54:46;;;;;;;16.55;9.80;;;;;;;22.32;49.27;102247.34;5071179;28;21456;-49
2021/09/05 06:57:11;;;;;;;16.75;9.98;;;;;;;22.72;49.00;102250.31;5066880;28;20547;-48
2021/09/05 06:59:37;;;;;;;16.33;9.43;;;;;;;22.85;47.51;102246.56;5051197;28;20028;-52
2021/09/05 07:02:03;;;;;;;21.08;9.88;;;;;;;22.89;48.29;102250.94;5061491;28;20466;-50
2021/09/05 07:04:28;;;;;;;17.02;9.70;;;;;;;23.52;45.87;102255.22;5069222;28;20027;-47
2021/09/05 07:06:53;;;;;;;17.90;9.93;;;;;;;23.29;47.71;102256.50;5050566;28;20079;-50
2021/09/05 07:09:19;;;;;;;17.08;9.75;;;;;;;23.58;46.18;102247.13;5070432;28;20447;-49
2021/09/05 07:11:44;;;;;;;15.70;9.70;;;;;;;23.64;46.96;102255.88;5064816;28;20035;-53
2021/09/05 07:14:09;;;;;;;18.15;10.07;;;;;;;23.78;46.41;102251.19;5068234;28;20413;-50
2021/09/05 07:16:35;;;;;;;16.45;9.73;;;;;;;23.76;45.34;102252.09;5068348;28;20027;-49
2021/09/05 07:19:00;;;;;;;19.90;9.98;;;;;;;23.39;48.01;102250.09;5065482;28;20094;-47
2021/09/05 07:21:26;;;;;;;15.38;9.95;;;;;;;24.18;44.32;102253.91;5064484;28;20480;-50
2021/09/05 07:23:51;;;;;;;16.08;9.57;;;;;;;24.19;44.59;102255.69;5071472;28;20031;-49
2021/09/05 07:26:16;;;;;;;15.77;9.45;;;;;;;24.33;44.35;102252.72;5064530;28;20020;-52
2021/09/05 07:28:42;;;;;;;15.77;9.63;;;;;;;24.07;45.24;102253.25;5062726;28;20787;-52
2021/09/05 07:31:07;;;;;;;20.15;9.80;;;;;;;24.07;44.56;102253.25;5069057;28;20028;-52
2021/09/05 07:33:33;;;;;;;16.17;9.30;;;;;;;24.65;44.38;102255.53;5067262;28;20358;-49
2021/09/05 07:35:58;;;;;;;16.48;9.35;;;;;;;24.63;43.80;102262.69;5060396;28;20407;-49
2021/09/05 07:38:24;;;;;;;17.92;9.52;;;;;;;24.17;45.51;102254.78;5066493;28;20028;-49
2021/09/05 07:40:50;;;;;;;15.48;9.35;;;;;;;24.46;44.89;102255.97;5048006;28;20108;-48
2021/09/05 07:43:15;;;;;;;13.75;8.13;;;;;;;25.07;43.84;102249.25;5066440;28;20491;-47
2021/09/05 07:45:41;;;;;;;15.48;8.48;;;;;;;24.97;45.03;102262.81;5065562;28;20441;-47
2021/09/05 07:48:06;;;;;;;18.02;9.18;;;;;;;24.30;44.11;102263.44;5066601;28;20043;-51
2021/09/05 07:50:31;;;;;;;16.45;9.27;;;;;;;23.28;46.39;102267.16;5066662;28;20055;-52
2021/09/05 07:52:57;;;;;;;16.48;9.60;;;;;;;22.78;47.59;102266.19;5063559;28;20054;-50
2021/09/05 07:55:22;;;;;;;15.45;9.25;;;;;;;21.73;50.62;102266.59;5064195;28;20169;-47
2021/09/05 07:57:50;;;;;;;16.90;10.38;;;;;;;21.41;52.72;102275.75;5058901;28;20126;-50
2021/09/05 08:00:16;;;;;;;17.90;10.00;;;;;;;21.32;52.20;102278.50;5058351;28;20369;-46
2021/09/05 08:02:41;;;;;;;17.95;10.00;;;;;;;21.45;53.76;102282.81;5059472;28;20040;-46
2021/09/05 08:05:08;;;;;;;18.30;9.82;;;;;;;21.52;54.12;102288.94;5051643;28;20027;-48
2021/09/05 08:07:34;;;;;;;18.15;9.55;;;;;;;21.34;53.30;102281.13;5067386;28;20097;-47
2021/09/05 08:09:59;;;;;;;15.45;9.63;;;;;;;21.27;52.74;102276.78;5045776;28;20279;-46
2021/09/05 08:12:25;;;;;;;16.67;9.48;;;;;;;21.32;52.76;102281.16;5064293;28;20543;-52
2021/09/05 08:14:50;;;;;;;16.33;9.50;;;;;;;21.20;55.18;102291.84;5070074;28;20480;-50
2021/09/05 08:17:15;;;;;;;18.77;9.77;;;;;;;21.23;53.58;102288.28;5063748;28;20352;-48
2021/09/05 08:19:41;;;;;;;17.30;9.65;;;;;;;21.33;55.57;102296.19;5067229;28;20646;-48
2021/09/05 08:22:06;;;;;;;16.92;9.93;;;;;;;21.50;55.10;102290.72;5064200;28;20143;-48
2021/09/05 08:24:32;;;;;;;19.67;10.10;;;;;;;21.25;56.06;102289.16;5066477;28;20181;-49
2021/09/05 08:26:57;;;;;;;15.63;9.90;;;;;;;21.55;52.46;102280.03;5066552;28;20152;-48
2021/09/05 08:29:22;;;;;;;17.08;9.88;;;;;;;21.59;53.20;102295.06;5065928;28;20106;-47
2021/09/05 08:31:48;;;;;;;18.08;9.43;;;;;;;21.54;52.94;102299.50;5064249;28;20324;-48
2021/09/05 08:34:13;;;;;;;19.08;9.65;;;;;;;21.72;53.13;102296.66;5066059;28;20048;-48
2021/09/05 08:36:39;;;;;;;15.60;9.52;;;;;;;21.45;53.91;102300.50;5069541;28;20032;-50
2021/09/05 08:39:04;;;;;;;16.15;9.70;;;;;;;21.29;52.99;102298.84;5070056;28;20043;-48
2021/09/05 08:41:29;;;;;;;17.75;9.15;;;;;;;21.18;56.38;102298.06;5062064;28;20333;-47
2021/09/05 08:43:57;;;;;;;19.08;10.00;;;;;;;21.14;54.50;102304.25;5051368;28;20115;-52
2021/09/05 08:46:22;;;;;;;16.58;9.18;;;;;;;21.33;54.26;102308.56;5071814;28;20305;-47
2021/09/05 08:48:50;;;;;;;17.50;9.32;;;;;;;21.55;55.14;102303.94;5060537;28;20032;-50
2021/09/05 08:51:17;;;;;;;16.77;9.38;;;;;;;21.57;55.13;102304.81;5071641;28;20245;-51
2021/09/05 08:53:42;;;;;;;17.55;8.93;;;;;;;21.99;53.42;102304.41;5056950;28;20127;-47
2021/09/05 08:56:08;;;;;;;18.17;8.70;;;;;;;22.16;52.85;102309.50;5052673;28;20308;-48
2021/09/05 08:58:33;;;;;;;16.67;9.23;;;;;;;22.14;51.60;102316.63;5063049;28;20082;-46
2021/09/05 09:01:15;;;;;;;16.75;9.10;;;;;;;22.13;53.15;102309.56;5062184;28;20115;-47
2021/09/05 09:03:40;;;;;;;14.77;8.57;;;;;;;22.37;54.88;102311.91;5066719;28;20086;-48
2021/09/05 09:06:05;;;;;;;14.95;9.02;;;;;;;22.26;51.33;102316.50;5060576;28;20482;-47
2021/09/05 09:08:31;;;;;;;14.18;8.20;;;;;;;22.48;52.07;102309.09;5067223;28;20027;-48
2021/09/05 09:11:00;;;;;;;13.48;8.13;;;;;;;22.22;50.72;102314.75;5048136;28;20024;-50
2021/09/05 09:13:38;;;;;;;16.20;8.18;;;;;;;22.43;49.87;102313.63;5065630;28;21511;-47
2021/09/05 09:16:08;;;;;;;13.48;8.25;;;;;;;22.05;51.95;102314.06;5043297;28;20387;-50
2021/09/05 09:18:34;;;;;;;19.05;8.82;;;;;;;22.20;51.50;102314.75;5066200;28;20103;-48
2021/09/05 09:21:03;;;;;;;18.48;8.85;;;;;;;22.32;50.47;102320.84;5069532;28;20297;-50
2021/09/05 09:23:30;;;;;;;16.85;8.80;;;;;;;22.33;51.55;102318.16;5065473;28;20123;-48
2021/09/05 09:25:57;;;;;;;18.88;8.55;;;;;;;22.19;50.59;102312.13;5055248;28;20307;-47
2021/09/05 09:28:24;;;;;;;13.75;7.90;;;;;;;22.11;51.01;102314.00;5069797;28;20036;-51
2021/09/05 09:30:49;;;;;;;17.10;8.65;;;;;;;22.19;52.09;102310.38;5065755;28;20752;-48
2021/09/05 09:33:22;;;;;;;17.42;8.55;;;;;;;22.11;50.60;102298.94;5070347;28;20028;-48
2021/09/05 09:35:50;;;;;;;15.65;8.52;;;;;;;22.32;52.38;102302.25;5048929;28;20032;-49
2021/09/05 09:38:17;;;;;;;14.75;8.30;;;;;;;22.38;52.38;102296.84;5070313;28;20077;-47
2021/09/05 09:40:44;;;;;;;18.13;8.68;;;;;;;22.79;52.04;102299.84;5068708;28;20476;-50
2021/09/05 09:43:17;;;;;;;13.85;8.10;;;;;;;22.65;49.49;102294.69;5052306;28;20483;-47
2021/09/05 09:45:43;;;;;;;14.68;8.30;;;;;;;22.65;49.66;102299.13;5068963;28;20024;-47
2021/09/05 09:48:08;;;;;;;14.50;8.05;;;;;;;22.61;50.65;102294.75;5068926;28;20020;-49
2021/09/05 09:50:41;;;;;;;17.73;8.52;;;;;;;22.57;50.09;102299.22;5068505;28;20032;-48
2021/09/05 09:53:07;;;;;;;14.50;8.30;;;;;;;22.90;51.83;102302.34;5069953;28;20604;-47
2021/09/05 09:55:36;;;;;;;14.07;7.93;;;;;;;22.93;50.61;102304.97;5067703;28;20565;-46
2021/09/05 09:58:01;;;;;;;14.07;7.65;;;;;;;23.09;49.55;102298.50;5045951;28;20037;-48
2021/09/05 10:00:26;;;;;;;13.27;7.88;;;;;;;22.79;49.43;102304.28;5069012;28;20036;-48
2021/09/05 10:02:52;;;;;;;15.45;7.63;;;;;;;22.86;47.91;102309.50;5074717;28;20024;-48
2021/09/05 10:05:17;;;;;;;16.13;8.07;;;;;;;22.56;49.68;102300.16;5048767;28;20126;-47
2021/09/05 10:07:43;;;;;;;14.10;7.70;;;;;;;22.74;49.33;102301.69;5065491;28;20032;-47
2021/09/05 10:10:08;;;;;;;14.15;7.60;;;;;;;22.86;49.47;102301.53;5047798;28;20455;-50
2021/09/05 10:12:36;;;;;;;16.83;8.27;;;;;;;22.86;50.10;102301.53;5049654;28;20471;-49
2021/09/05 10:15:03;;;;;;;15.60;7.55;;;;;;;22.90;47.76;102307.66;5068706;28;20019;-48
2021/09/05 10:17:30;;;;;;;14.80;7.80;;;;;;;22.98;47.58;102306.66;5067098;28;20483;-47
2021/09/05 10:19:55;;;;;;;14.63;7.85;;;;;;;22.99;49.19;102308.38;5066318;28;20040;-47
2021/09/05 10:22:23;;;;;;;15.05;8.32;;;;;;;22.83;47.08;102306.88;5047289;28;20032;-47
2021/09/05 10:24:53;;;;;;;16.38;7.30;;;;;;;23.15;46.69;102302.84;5053176;28;20511;-47
2021/09/05 10:27:49;;;;;;;11.43;7.15;;;;;;;22.94;47.77;102302.25;5071383;28;20043;-48
2021/09/05 10:30:21;;;;;;;14.07;7.45;;;;;;;22.91;48.96;102312.09;5047030;28;20485;-52
2021/09/05 10:32:51;;;;;;;14.50;8.02;;;;;;;23.06;47.72;102304.75;5065222;28;20301;-48
2021/09/05 10:35:26;;;;;;;13.07;7.30;;;;;;;22.94;47.20;102304.03;5046248;28;20384;-48
2021/09/05 10:38:10;;;;;;;16.63;6.85;;;;;;;23.27;48.32;102308.84;5065487;28;20027;-49
2021/09/05 10:40:39;;;;;;;;;;;;;;;23.03;46.35;102299.47;5060993;28;20039;-47
2021/09/05 10:43:08;;;;;;;13.88;7.10;;;;;;;23.03;46.74;102307.47;5068807;28;20003;-49
2021/09/05 10:45:34;;;;;;;17.08;7.47;;;;;;;23.27;46.98;102302.66;5066010;28;20032;-48
2021/09/05 10:47:59;;;;;;;14.65;7.72;;;;;;;23.25;46.16;102307.97;5042564;28;20035;-49
2021/09/05 10:50:34;;;;;;;15.55;7.65;;;;;;;23.43;45.88;102301.47;5062411;28;20370;-46
2021/09/05 10:53:17;;;;;;;16.65;7.65;;;;;;;23.34;46.44;102305.19;5067583;28;20039;-49
2021/09/05 10:56:04;;;;;;;11.68;7.10;;;;;;;23.25;46.00;102299.13;5066042;28;20031;-50
2021/09/05 10:58:51;;;;;;;15.13;7.30;;;;;;;23.12;47.35;102297.56;5065287;28;20043;-49
2021/09/05 11:01:27;;;;;;;15.93;8.20;;;;;;;23.13;48.13;102296.66;5036284;28;20028;-49
2021/09/05 11:04:24;;;;;;;13.95;6.65;;;;;;;23.45;49.54;102291.69;5063750;28;20047;-51
2021/09/05 11:06:56;;;;;;;11.93;6.90;;;;;;;23.41;45.73;102293.53;5048538;28;20086;-46
2021/09/05 11:09:24;;;;;;;12.45;6.70;;;;;;;23.55;45.20;102290.63;5065424;28;20343;-54
2021/09/05 11:12:00;;;;;;;15.05;7.20;;;;;;;23.42;44.80;102294.41;5055969;28;20028;-48
2021/09/05 11:14:35;;;;;;;13.73;6.88;;;;;;;23.66;44.62;102293.13;5047286;28;20471;-49